sensor_id;sensor_type;location;lat;lon;timestamp;pressure;altitude;pressure_sealevel;temperature;humidity
6899;BME280;3488;42.616;23.350;2023-07-31T00:00:22;63968.59;;;19.03;100.00
6899;BME280;3488;42.616;23.350;2023-07-31T00:02:49;63969.13;;;19.06;100.00
6899;BME280;3488;42.616;23.350;2023-07-31T00:05:16;63971.72;;;19.09;100.00
6899;BME280;3488;42.616;23.350;2023-07-31T00:07:43;63974.31;;;19.09;100.00
6899;BME280;3488;42.616;23.350;2023-07-31T00:10:10;63974.31;;;19.09;100.00
6899;BME280;3488;42.616;23.350;2023-07-31T00:12:37;63974.84;;;19.09;100.00
6899;BME280;3488;42.616;23.350;2023-07-31T00:15:07;63969.09;;;19.04;100.00
6899;BME280;3488;42.616;23.350;2023-07-31T00:17:36;63968.59;;;19.06;100.00
6899;BME280;3488;42.616;23.350;2023-07-31T00:20:04;63970.16;;;19.05;100.00
6899;BME280;3488;42.616;23.350;2023-07-31T00:22:31;63973.78;;;19.06;100.00
6899;BME280;3488;42.616;23.350;2023-07-31T00:24:58;63964.44;;;19.02;100.00
6899;BME280;3488;42.616;23.350;2023-07-31T00:27:25;63964.94;;;19.00;100.00
6899;BME280;3488;42.616;23.350;2023-07-31T00:29:52;63969.63;;;19.04;100.00
6899;BME280;3488;42.616;23.350;2023-07-31T00:32:20;63972.22;;;19.04;100.00
6899;BME280;3488;42.616;23.350;2023-07-31T00:34:47;63956.09;;;18.94;100.00
6899;BME280;3488;42.616;23.350;2023-07-31T00:37:14;63961.31;;;18.99;100.00
6899;BME280;3488;42.616;23.350;2023-07-31T00:39:41;63959.69;;;18.92;100.00
6899;BME280;3488;42.616;23.350;2023-07-31T00:42:08;63945.16;;;18.83;100.00
6899;BME280;3488;42.616;23.350;2023-07-31T00:44:35;63945.09;;;18.78;100.00
6899;BME280;3488;42.616;23.350;2023-07-31T00:47:02;63940.97;;;18.77;100.00
6899;BME280;3488;42.616;23.350;2023-07-31T00:49:31;63937.84;;;18.74;100.00
6899;BME280;3488;42.616;23.350;2023-07-31T00:51:59;63940.97;;;18.77;100.00
6899;BME280;3488;42.616;23.350;2023-07-31T00:54:28;63949.78;;;18.83;100.00
6899;BME280;3488;42.616;23.350;2023-07-31T00:56:55;63952.94;;;18.86;100.00
6899;BME280;3488;42.616;23.350;2023-07-31T00:59:23;63944.06;;;18.80;100.00
6899;BME280;3488;42.616;23.350;2023-07-31T01:01:50;63948.78;;;18.84;100.00
6899;BME280;3488;42.616;23.350;2023-07-31T01:04:17;63951.88;;;18.85;100.00
6899;BME280;3488;42.616;23.350;2023-07-31T01:06:50;63937.34;;;18.76;100.00
6899;BME280;3488;42.616;23.350;2023-07-31T01:09:27;63926.91;;;18.66;100.00
6899;BME280;3488;42.616;23.350;2023-07-31T01:11:57;63922.22;;;18.61;100.00
6899;BME280;3488;42.616;23.350;2023-07-31T01:14:27;63915.41;;;18.50;100.00
6899;BME280;3488;42.616;23.350;2023-07-31T01:16:54;63916.97;;;18.54;100.00
6899;BME280;3488;42.616;23.350;2023-07-31T01:19:23;63915.41;;;18.50;100.00
6899;BME280;3488;42.616;23.350;2023-07-31T01:22:11;63918.53;;;18.55;100.00
6899;BME280;3488;42.616;23.350;2023-07-31T01:24:49;63911.28;;;18.51;100.00
6899;BME280;3488;42.616;23.350;2023-07-31T01:27:24;63919.53;;;18.51;100.00
6899;BME280;3488;42.616;23.350;2023-07-31T01:29:56;63920.06;;;18.52;100.00
6899;BME280;3488;42.616;23.350;2023-07-31T01:32:27;63911.25;;;18.48;100.00
6899;BME280;3488;42.616;23.350;2023-07-31T01:34:55;63907.63;;;18.45;100.00
6899;BME280;3488;42.616;23.350;2023-07-31T01:37:28;63906.03;;;18.43;100.00
6899;BME280;3488;42.616;23.350;2023-07-31T01:39:55;63897.72;;;18.37;100.00
6899;BME280;3488;42.616;23.350;2023-07-31T01:42:23;63902.38;;;18.39;100.00
6899;BME280;3488;42.616;23.350;2023-07-31T01:44:50;63897.19;;;18.37;100.00
6899;BME280;3488;42.616;23.350;2023-07-31T01:47:17;63897.16;;;18.34;100.00
6899;BME280;3488;42.616;23.350;2023-07-31T01:49:43;63900.78;;;18.35;100.00
6899;BME280;3488;42.616;23.350;2023-07-31T01:52:10;63894.06;;;18.34;100.00
6899;BME280;3488;42.616;23.350;2023-07-31T01:54:37;63900.78;;;18.35;100.00
6899;BME280;3488;42.616;23.350;2023-07-31T01:57:05;63903.38;;;18.38;100.00
6899;BME280;3488;42.616;23.350;2023-07-31T01:59:34;63900.31;;;18.37;100.00
6899;BME280;3488;42.616;23.350;2023-07-31T02:02:01;63896.69;;;18.39;100.00
6899;BME280;3488;42.616;23.350;2023-07-31T02:04:28;63896.66;;;18.36;100.00
6899;BME280;3488;42.616;23.350;2023-07-31T02:06:55;63894.06;;;18.34;100.00
6899;BME280;3488;42.616;23.350;2023-07-31T02:09:22;63899.81;;;18.39;100.00
6899;BME280;3488;42.616;23.350;2023-07-31T02:11:49;63906.53;;;18.41;100.00
6899;BME280;3488;42.616;23.350;2023-07-31T02:14:16;63906.06;;;18.46;100.00
6899;BME280;3488;42.616;23.350;2023-07-31T02:16:44;63919.59;;;18.56;100.00
6899;BME280;3488;42.616;23.350;2023-07-31T02:19:11;63927.91;;;18.62;100.00
6899;BME280;3488;42.616;23.350;2023-07-31T02:21:38;63928.44;;;18.65;100.00
6899;BME280;3488;42.616;23.350;2023-07-31T02:24:05;63927.97;;;18.67;100.00
6899;BME280;3488;42.616;23.350;2023-07-31T02:26:32;63936.28;;;18.72;100.00
6899;BME280;3488;42.616;23.350;2023-07-31T02:28:59;63938.38;;;18.77;100.00
6899;BME280;3488;42.616;23.350;2023-07-31T02:31:26;63942.03;;;18.80;100.00
6899;BME280;3488;42.616;23.350;2023-07-31T02:33:54;63950.84;;;18.86;100.00
6899;BME280;3488;42.616;23.350;2023-07-31T02:36:21;63956.59;;;18.92;100.00
6899;BME280;3488;42.616;23.350;2023-07-31T02:38:48;63959.72;;;18.95;100.00
6899;BME280;3488;42.616;23.350;2023-07-31T02:41:15;63962.31;;;18.97;100.00
6899;BME280;3488;42.616;23.350;2023-07-31T02:43:42;63969.09;;;19.04;100.00
6899;BME280;3488;42.616;23.350;2023-07-31T02:46:09;63970.66;;;19.05;100.00
6899;BME280;3488;42.616;23.350;2023-07-31T02:48:36;63974.81;;;19.07;100.00
6899;BME280;3488;42.616;23.350;2023-07-31T02:51:06;63973.31;;;19.13;100.00
6899;BME280;3488;42.616;23.350;2023-07-31T02:53:33;63972.31;;;19.14;100.00
6899;BME280;3488;42.616;23.350;2023-07-31T02:56:00;63976.97;;;19.16;100.00
6899;BME280;3488;42.616;23.350;2023-07-31T02:58:27;63980.59;;;19.17;100.00
6899;BME280;3488;42.616;23.350;2023-07-31T03:00:54;63983.22;;;19.22;100.00
6899;BME280;3488;42.616;23.350;2023-07-31T03:03:21;63997.22;;;19.28;100.00
6899;BME280;3488;42.616;23.350;2023-07-31T03:05:48;63991.03;;;19.27;100.00
6899;BME280;3488;42.616;23.350;2023-07-31T03:08:16;63995.22;;;19.31;100.00
6899;BME280;3488;42.616;23.350;2023-07-31T03:10:43;63998.84;;;19.32;100.00
6899;BME280;3488;42.616;23.350;2023-07-31T03:13:09;63998.31;;;19.32;100.00
6899;BME280;3488;42.616;23.350;2023-07-31T03:15:37;64002.50;;;19.36;100.00
6899;BME280;3488;42.616;23.350;2023-07-31T03:18:04;64007.72;;;19.41;100.00
6899;BME280;3488;42.616;23.350;2023-07-31T03:20:31;64010.84;;;19.44;100.00
6899;BME280;3488;42.616;23.350;2023-07-31T03:22:58;64017.53;;;19.43;100.00
6899;BME280;3488;42.616;23.350;2023-07-31T03:25:27;64014.97;;;19.45;100.00
6899;BME280;3488;42.616;23.350;2023-07-31T03:27:54;64011.38;;;19.47;100.00
6899;BME280;3488;42.616;23.350;2023-07-31T03:30:21;64017.09;;;19.50;100.00
6899;BME280;3488;42.616;23.350;2023-07-31T03:32:48;64021.78;;;19.54;100.00
6899;BME280;3488;42.616;23.350;2023-07-31T03:35:15;64024.38;;;19.57;100.00
6899;BME280;3488;42.616;23.350;2023-07-31T03:37:42;64027.53;;;19.60;100.00
6899;BME280;3488;42.616;23.350;2023-07-31T03:40:10;64030.59;;;19.58;100.00
6899;BME280;3488;42.616;23.350;2023-07-31T03:42:39;64028.03;;;19.61;100.00
6899;BME280;3488;42.616;23.350;2023-07-31T03:45:07;64031.69;;;19.64;100.00
6899;BME280;3488;42.616;23.350;2023-07-31T03:47:35;64031.72;;;19.67;100.00
6899;BME280;3488;42.616;23.350;2023-07-31T03:50:02;64033.75;;;19.64;100.00
6899;BME280;3488;42.616;23.350;2023-07-31T03:52:29;64035.34;;;19.68;100.00
6899;BME280;3488;42.616;23.350;2023-07-31T03:54:56;64035.34;;;19.68;100.00
6899;BME280;3488;42.616;23.350;2023-07-31T03:57:23;64039.03;;;19.74;100.00
6899;BME280;3488;42.616;23.350;2023-07-31T03:59:52;64046.84;;;19.81;100.00
6899;BME280;3488;42.616;23.350;2023-07-31T04:02:18;64040.59;;;19.75;100.00
6899;BME280;3488;42.616;23.350;2023-07-31T04:04:46;64041.63;;;19.76;100.00
6899;BME280;3488;42.616;23.350;2023-07-31T04:07:12;64041.66;;;19.79;100.00
6899;BME280;3488;42.616;23.350;2023-07-31T04:09:39;64056.19;;;19.85;100.00
6899;BME280;3488;42.616;23.350;2023-07-31T04:12:07;64050.44;;;19.80;100.00
6899;BME280;3488;42.616;23.350;2023-07-31T04:14:35;64050.47;;;19.85;100.00
6899;BME280;3488;42.616;23.350;2023-07-31T04:17:04;64058.81;;;19.88;100.00
6899;BME280;3488;42.616;23.350;2023-07-31T04:19:30;64062.97;;;19.92;100.00
6899;BME280;3488;42.616;23.350;2023-07-31T04:21:57;64061.44;;;19.93;100.00
6899;BME280;3488;42.616;23.350;2023-07-31T04:24:24;64057.25;;;19.89;100.00
6899;BME280;3488;42.616;23.350;2023-07-31T04:26:51;64055.69;;;19.90;100.00
6899;BME280;3488;42.616;23.350;2023-07-31T04:29:19;64065.66;;;20.02;100.00
6899;BME280;3488;42.616;23.350;2023-07-31T04:31:47;64075.47;;;20.04;100.00
6899;BME280;3488;42.616;23.350;2023-07-31T04:34:16;64080.75;;;20.14;100.00
6899;BME280;3488;42.616;23.350;2023-07-31T04:36:43;64079.69;;;20.10;100.00
6899;BME280;3488;42.616;23.350;2023-07-31T04:39:10;64088.56;;;20.16;100.00
6899;BME280;3488;42.616;23.350;2023-07-31T04:41:37;64094.84;;;20.25;100.00
6899;BME280;3488;42.616;23.350;2023-07-31T04:44:05;64100.53;;;20.28;100.00
6899;BME280;3488;42.616;23.350;2023-07-31T04:46:32;64112.06;;;20.41;100.00
6899;BME280;3488;42.616;23.350;2023-07-31T04:48:59;64113.63;;;20.43;100.00
6899;BME280;3488;42.616;23.350;2023-07-31T04:51:28;64121.44;;;20.48;100.00
6899;BME280;3488;42.616;23.350;2023-07-31T04:53:55;64117.28;;;20.49;100.00
6899;BME280;3488;42.616;23.350;2023-07-31T04:56:23;64125.59;;;20.49;100.00
6899;BME280;3488;42.616;23.350;2023-07-31T04:58:50;64122.00;;;20.53;100.00
6899;BME280;3488;42.616;23.350;2023-07-31T05:01:17;64108.91;;;20.38;100.00
6899;BME280;3488;42.616;23.350;2023-07-31T05:03:45;64114.66;;;20.44;100.00
6899;BME280;3488;42.616;23.350;2023-07-31T05:06:12;64129.28;;;20.58;100.00
6899;BME280;3488;42.616;23.350;2023-07-31T05:08:42;64140.78;;;20.69;100.00
6899;BME280;3488;42.616;23.350;2023-07-31T05:11:09;64157.44;;;20.83;100.00
6899;BME280;3488;42.616;23.350;2023-07-31T05:13:36;64165.81;;;20.93;100.00
6899;BME280;3488;42.616;23.350;2023-07-31T05:16:03;64172.13;;;21.02;100.00
6899;BME280;3488;42.616;23.350;2023-07-31T05:18:30;64151.72;;;20.80;100.00
6899;BME280;3488;42.616;23.350;2023-07-31T05:20:57;64158.56;;;20.91;100.00
6899;BME280;3488;42.616;23.350;2023-07-31T05:23:24;64198.69;;;21.20;100.00
6899;BME280;3488;42.616;23.350;2023-07-31T05:25:52;64192.44;;;21.16;100.00
6899;BME280;3488;42.616;23.350;2023-07-31T05:28:21;64204.47;;;21.30;100.00
6899;BME280;3488;42.616;23.350;2023-07-31T05:30:48;64208.66;;;21.37;100.00
6899;BME280;3488;42.616;23.350;2023-07-31T05:33:15;64193.50;;;21.20;100.00
6899;BME280;3488;42.616;23.350;2023-07-31T05:35:43;64198.75;;;21.27;100.00
6899;BME280;3488;42.616;23.350;2023-07-31T05:38:10;64204.47;;;21.30;100.00
6899;BME280;3488;42.616;23.350;2023-07-31T05:40:37;64186.19;;;21.10;100.00
6899;BME280;3488;42.616;23.350;2023-07-31T05:43:05;64198.22;;;21.24;100.00
6899;BME280;3488;42.616;23.350;2023-07-31T05:45:33;64207.63;;;21.36;100.00
6899;BME280;3488;42.616;23.350;2023-07-31T05:48:00;64229.00;;;21.54;100.00
6899;BME280;3488;42.616;23.350;2023-07-31T05:50:27;64235.81;;;21.60;100.00
6899;BME280;3488;42.616;23.350;2023-07-31T05:52:54;64248.38;;;21.75;100.00
6899;BME280;3488;42.616;23.350;2023-07-31T05:55:21;64263.50;;;21.85;99.31
6899;BME280;3488;42.616;23.350;2023-07-31T05:57:49;64258.84;;;21.85;99.66
6899;BME280;3488;42.616;23.350;2023-07-31T06:00:18;64280.22;;;22.01;97.85
6899;BME280;3488;42.616;23.350;2023-07-31T06:02:46;64277.13;;;22.00;98.67
6899;BME280;3488;42.616;23.350;2023-07-31T06:05:13;64301.66;;;22.24;95.56
6899;BME280;3488;42.616;23.350;2023-07-31T06:07:42;64289.69;;;22.17;95.05
6899;BME280;3488;42.616;23.350;2023-07-31T06:10:09;64294.88;;;22.17;95.52
6899;BME280;3488;42.616;23.350;2023-07-31T06:12:36;64299.03;;;22.21;93.78
6899;BME280;3488;42.616;23.350;2023-07-31T06:15:05;64276.09;;;22.04;94.34
6899;BME280;3488;42.616;23.350;2023-07-31T06:17:33;64261.41;;;21.83;96.42
6899;BME280;3488;42.616;23.350;2023-07-31T06:20:00;64246.78;;;21.71;99.04
6899;BME280;3488;42.616;23.350;2023-07-31T06:22:28;64270.84;;;21.94;91.84
6899;BME280;3488;42.616;23.350;2023-07-31T06:24:55;64288.59;;;22.11;92.47
6899;BME280;3488;42.616;23.350;2023-07-31T06:27:23;64302.19;;;22.24;88.90
6899;BME280;3488;42.616;23.350;2023-07-31T06:29:50;64301.13;;;22.21;88.12
6899;BME280;3488;42.616;23.350;2023-07-31T06:32:17;64315.78;;;22.37;88.17
6899;BME280;3488;42.616;23.350;2023-07-31T06:34:46;64331.44;;;22.50;84.64
6899;BME280;3488;42.616;23.350;2023-07-31T06:37:13;64323.63;;;22.47;86.36
6899;BME280;3488;42.616;23.350;2023-07-31T06:39:40;64343.50;;;22.64;81.77
6899;BME280;3488;42.616;23.350;2023-07-31T06:42:07;64341.91;;;22.60;83.63
6899;BME280;3488;42.616;23.350;2023-07-31T06:44:34;64349.25;;;22.69;80.62
6899;BME280;3488;42.616;23.350;2023-07-31T06:47:02;64341.91;;;22.60;78.63
6899;BME280;3488;42.616;23.350;2023-07-31T06:49:29;64302.16;;;22.22;82.26
6899;BME280;3488;42.616;23.350;2023-07-31T06:51:57;64306.88;;;22.29;82.00
6899;BME280;3488;42.616;23.350;2023-07-31T06:54:24;64316.81;;;22.38;83.78
6899;BME280;3488;42.616;23.350;2023-07-31T06:56:51;64348.22;;;22.71;80.20
6899;BME280;3488;42.616;23.350;2023-07-31T06:59:18;64330.97;;;22.54;83.72
6899;BME280;3488;42.616;23.350;2023-07-31T07:01:47;64332.47;;;22.51;82.86
6899;BME280;3488;42.616;23.350;2023-07-31T07:04:16;64344.00;;;22.62;84.91
6899;BME280;3488;42.616;23.350;2023-07-31T07:06:43;64362.84;;;22.82;81.40
6899;BME280;3488;42.616;23.350;2023-07-31T07:09:12;64326.75;;;22.50;84.47
6899;BME280;3488;42.616;23.350;2023-07-31T07:11:39;64301.16;;;22.26;85.75
6899;BME280;3488;42.616;23.350;2023-07-31T07:14:07;64308.97;;;22.31;84.58
6899;BME280;3488;42.616;23.350;2023-07-31T07:16:34;64319.97;;;22.44;81.25
6899;BME280;3488;42.616;23.350;2023-07-31T07:19:01;64325.69;;;22.44;80.99
6899;BME280;3488;42.616;23.350;2023-07-31T07:21:28;64336.69;;;22.55;81.59
6899;BME280;3488;42.616;23.350;2023-07-31T07:23:55;64326.75;;;22.50;82.03
6899;BME280;3488;42.616;23.350;2023-07-31T07:26:24;64346.63;;;22.64;79.71
6899;BME280;3488;42.616;23.350;2023-07-31T07:28:52;64344.00;;;22.62;79.66
6899;BME280;3488;42.616;23.350;2023-07-31T07:31:19;64329.88;;;22.48;79.51
6899;BME280;3488;42.616;23.350;2023-07-31T07:33:46;64302.69;;;22.25;81.26
6899;BME280;3488;42.616;23.350;2023-07-31T07:36:13;64283.94;;;22.12;83.20
6899;BME280;3488;42.616;23.350;2023-07-31T07:38:40;64272.94;;;21.96;80.38
6899;BME280;3488;42.616;23.350;2023-07-31T07:41:07;64289.13;;;22.12;80.39
6899;BME280;3488;42.616;23.350;2023-07-31T07:43:37;64277.66;;;22.03;82.26
6899;BME280;3488;42.616;23.350;2023-07-31T07:46:04;64313.16;;;22.35;81.77
6899;BME280;3488;42.616;23.350;2023-07-31T07:48:31;64304.78;;;22.27;80.52
6899;BME280;3488;42.616;23.350;2023-07-31T07:50:58;64331.50;;;22.57;78.30
6899;BME280;3488;42.616;23.350;2023-07-31T07:53:25;64379.59;;;22.99;75.53
6899;BME280;3488;42.616;23.350;2023-07-31T07:55:52;64399.44;;;23.18;74.53
6899;BME280;3488;42.616;23.350;2023-07-31T07:58:19;64382.69;;;22.99;75.38
6899;BME280;3488;42.616;23.350;2023-07-31T08:00:50;64376.97;;;22.96;75.93
6899;BME280;3488;42.616;23.350;2023-07-31T08:03:18;64321.00;;;22.42;79.54
6899;BME280;3488;42.616;23.350;2023-07-31T08:05:45;64348.19;;;22.66;77.97
6899;BME280;3488;42.616;23.350;2023-07-31T08:08:15;64349.78;;;22.72;75.34
6899;BME280;3488;42.616;23.350;2023-07-31T08:10:42;64368.06;;;22.87;75.67
6899;BME280;3488;42.616;23.350;2023-07-31T08:13:09;64383.22;;;23.00;74.07
6899;BME280;3488;42.616;23.350;2023-07-31T08:15:36;64361.28;;;22.81;76.87
6899;BME280;3488;42.616;23.350;2023-07-31T08:18:05;64378.00;;;22.95;76.61
6899;BME280;3488;42.616;23.350;2023-07-31T08:20:35;64385.34;;;23.07;74.78
6899;BME280;3488;42.616;23.350;2023-07-31T08:23:02;64402.06;;;23.20;70.96
6899;BME280;3488;42.616;23.350;2023-07-31T08:25:29;64382.72;;;23.04;73.17
6899;BME280;3488;42.616;23.350;2023-07-31T08:27:56;64403.09;;;23.21;71.97
6899;BME280;3488;42.616;23.350;2023-07-31T08:30:24;64436.06;;;23.53;70.91
6899;BME280;3488;42.616;23.350;2023-07-31T08:32:52;64437.13;;;23.51;70.23
6899;BME280;3488;42.616;23.350;2023-07-31T08:35:22;64431.38;;;23.48;68.94
6899;BME280;3488;42.616;23.350;2023-07-31T08:37:49;64444.97;;;23.59;67.52
6899;BME280;3488;42.616;23.350;2023-07-31T08:40:16;64477.91;;;23.90;66.82
6899;BME280;3488;42.616;23.350;2023-07-31T08:42:44;64471.13;;;23.86;65.85
6899;BME280;3488;42.616;23.350;2023-07-31T08:45:14;64486.34;;;24.04;64.73
6899;BME280;3488;42.616;23.350;2023-07-31T08:47:44;64474.81;;;23.90;63.58
6899;BME280;3488;42.616;23.350;2023-07-31T08:50:12;64495.22;;;24.10;62.64
6899;BME280;3488;42.616;23.350;2023-07-31T08:52:42;64481.13;;;24.01;61.94
6899;BME280;3488;42.616;23.350;2023-07-31T08:55:09;64492.63;;;24.10;61.83
6899;BME280;3488;42.616;23.350;2023-07-31T08:57:39;64538.66;;;24.46;60.95
6899;BME280;3488;42.616;23.350;2023-07-31T09:00:08;64505.69;;;24.20;61.72
6899;BME280;3488;42.616;23.350;2023-07-31T09:02:37;64528.72;;;24.42;60.05
6899;BME280;3488;42.616;23.350;2023-07-31T09:05:07;64536.03;;;24.46;59.06
6899;BME280;3488;42.616;23.350;2023-07-31T09:07:35;64521.38;;;24.32;60.56
6899;BME280;3488;42.616;23.350;2023-07-31T09:10:04;64524.50;;;24.35;60.34
6899;BME280;3488;42.616;23.350;2023-07-31T09:12:32;64482.66;;;23.97;61.15
6899;BME280;3488;42.616;23.350;2023-07-31T09:14:59;64477.41;;;23.92;61.88
6899;BME280;3488;42.616;23.350;2023-07-31T09:17:30;64496.81;;;24.14;60.65
6899;BME280;3488;42.616;23.350;2023-07-31T09:19:57;64510.38;;;24.22;59.77
6899;BME280;3488;42.616;23.350;2023-07-31T09:22:35;64489.47;;;24.07;59.68
6899;BME280;3488;42.616;23.350;2023-07-31T09:25:15;64539.72;;;24.50;58.92
6899;BME280;3488;42.616;23.350;2023-07-31T09:27:47;64553.91;;;24.71;55.71
6899;BME280;3488;42.616;23.350;2023-07-31T09:30:15;64560.16;;;24.72;55.33
6899;BME280;3488;42.616;23.350;2023-07-31T09:32:43;64572.75;;;24.86;55.14
6899;BME280;3488;42.616;23.350;2023-07-31T09:35:18;64585.81;;;24.99;55.05
6899;BME280;3488;42.616;23.350;2023-07-31T09:37:49;64597.31;;;25.07;54.30
6899;BME280;3488;42.616;23.350;2023-07-31T09:40:29;64621.41;;;25.26;52.92
6899;BME280;3488;42.616;23.350;2023-07-31T09:42:57;64610.94;;;25.18;53.32
6899;BME280;3488;42.616;23.350;2023-07-31T09:45:24;64615.16;;;25.25;53.28
6899;BME280;3488;42.616;23.350;2023-07-31T09:47:52;64623.56;;;25.38;53.67
6899;BME280;3488;42.616;23.350;2023-07-31T09:50:21;64656.03;;;25.64;52.61
6899;BME280;3488;42.616;23.350;2023-07-31T09:52:48;64681.16;;;25.83;52.36
6899;BME280;3488;42.616;23.350;2023-07-31T09:55:16;64689.53;;;25.91;51.47
6899;BME280;3488;42.616;23.350;2023-07-31T09:57:47;64702.16;;;26.05;51.01
6899;BME280;3488;42.616;23.350;2023-07-31T10:00:17;64711.06;;;26.16;50.30
6899;BME280;3488;42.616;23.350;2023-07-31T10:02:45;64711.06;;;26.16;50.42
6899;BME280;3488;42.616;23.350;2023-07-31T10:05:14;64716.31;;;26.21;51.49
6899;BME280;3488;42.616;23.350;2023-07-31T10:07:43;64696.91;;;26.03;51.18
6899;BME280;3488;42.616;23.350;2023-07-31T10:10:14;64697.91;;;25.99;50.79
6899;BME280;3488;42.616;23.350;2023-07-31T10:12:42;64679.09;;;25.83;50.38
6899;BME280;3488;42.616;23.350;2023-07-31T10:15:12;64643.97;;;25.52;51.66
6899;BME280;3488;42.616;23.350;2023-07-31T10:17:40;64683.78;;;25.90;50.76
6899;BME280;3488;42.616;23.350;2023-07-31T10:20:08;64712.66;;;26.20;50.55
6899;BME280;3488;42.616;23.350;2023-07-31T10:22:36;64731.00;;;26.38;49.11
6899;BME280;3488;42.616;23.350;2023-07-31T10:25:04;64716.84;;;26.19;48.74
6899;BME280;3488;42.616;23.350;2023-07-31T10:27:35;64669.66;;;25.77;48.03
6899;BME280;3488;42.616;23.350;2023-07-31T10:30:04;64620.38;;;25.30;51.72
6899;BME280;3488;42.616;23.350;2023-07-31T10:32:34;64651.84;;;25.57;50.64
6899;BME280;3488;42.616;23.350;2023-07-31T10:35:03;64699.56;;;26.10;48.94
6899;BME280;3488;42.616;23.350;2023-07-31T10:37:37;64698.50;;;26.04;48.61
6899;BME280;3488;42.616;23.350;2023-07-31T10:40:09;64667.00;;;25.72;48.48
6899;BME280;3488;42.616;23.350;2023-07-31T10:42:38;64640.31;;;25.51;48.78
6899;BME280;3488;42.616;23.350;2023-07-31T10:45:07;64644.50;;;25.58;48.55
6899;BME280;3488;42.616;23.350;2023-07-31T10:47:42;64632.44;;;25.41;48.69
6899;BME280;3488;42.616;23.350;2023-07-31T10:50:13;64636.66;;;25.45;48.98
6899;BME280;3488;42.616;23.350;2023-07-31T10:52:40;64670.69;;;25.78;47.84
6899;BME280;3488;42.616;23.350;2023-07-31T10:55:24;64685.88;;;25.90;47.95
6899;BME280;3488;42.616;23.350;2023-07-31T10:57:52;64653.41;;;25.59;48.50
6899;BME280;3488;42.616;23.350;2023-07-31T11:00:21;64676.44;;;25.81;47.82
6899;BME280;3488;42.616;23.350;2023-07-31T11:03:03;64671.75;;;25.76;47.45
6899;BME280;3488;42.616;23.350;2023-07-31T11:06:00;64686.41;;;25.93;47.48
6899;BME280;3488;42.616;23.350;2023-07-31T11:08:29;64683.25;;;25.87;47.29
6899;BME280;3488;42.616;23.350;2023-07-31T11:11:07;64739.38;;;26.41;46.28
6899;BME280;3488;42.616;23.350;2023-07-31T11:13:41;64769.81;;;26.73;44.93
6899;BME280;3488;42.616;23.350;2023-07-31T11:16:08;64759.31;;;26.65;44.54
6899;BME280;3488;42.616;23.350;2023-07-31T11:18:39;64708.97;;;26.14;45.19
6899;BME280;3488;42.616;23.350;2023-07-31T11:21:07;64721.03;;;26.26;44.82
6899;BME280;3488;42.616;23.350;2023-07-31T11:23:37;64708.97;;;26.14;44.55
6899;BME280;3488;42.616;23.350;2023-07-31T11:26:05;64755.66;;;26.59;44.37
6899;BME280;3488;42.616;23.350;2023-07-31T11:28:33;64781.34;;;26.84;43.28
6899;BME280;3488;42.616;23.350;2023-07-31T11:31:01;64811.22;;;27.07;42.62
6899;BME280;3488;42.616;23.350;2023-07-31T11:33:28;64807.56;;;27.06;42.44
6899;BME280;3488;42.616;23.350;2023-07-31T11:35:57;64815.97;;;27.17;42.49
6899;BME280;3488;42.616;23.350;2023-07-31T11:38:25;64853.22;;;27.50;40.88
6899;BME280;3488;42.616;23.350;2023-07-31T11:40:53;64854.25;;;27.51;41.08
6899;BME280;3488;42.616;23.350;2023-07-31T11:43:21;64793.41;;;26.93;41.89
6899;BME280;3488;42.616;23.350;2023-07-31T11:45:51;64804.44;;;27.06;41.43
6899;BME280;3488;42.616;23.350;2023-07-31T11:48:19;64803.91;;;27.08;42.23
6899;BME280;3488;42.616;23.350;2023-07-31T11:50:48;64775.59;;;26.78;42.25
6899;BME280;3488;42.616;23.350;2023-07-31T11:53:20;64761.44;;;26.67;42.55
6899;BME280;3488;42.616;23.350;2023-07-31T11:55:48;64805.44;;;26.99;42.66
6899;BME280;3488;42.616;23.350;2023-07-31T11:58:16;64746.72;;;26.48;44.28
6899;BME280;3488;42.616;23.350;2023-07-31T12:00:44;64706.34;;;26.09;45.52
6899;BME280;3488;42.616;23.350;2023-07-31T12:03:12;64743.03;;;26.40;44.92
6899;BME280;3488;42.616;23.350;2023-07-31T12:05:39;64712.63;;;26.13;45.62
6899;BME280;3488;42.616;23.350;2023-07-31T12:08:10;64750.91;;;26.55;44.74
6899;BME280;3488;42.616;23.350;2023-07-31T12:10:39;64769.78;;;26.70;44.61
6899;BME280;3488;42.616;23.350;2023-07-31T12:13:08;64786.06;;;26.86;43.34
6899;BME280;3488;42.616;23.350;2023-07-31T12:15:40;64749.88;;;26.54;43.33
6899;BME280;3488;42.616;23.350;2023-07-31T12:18:10;64773.47;;;26.71;44.18
6899;BME280;3488;42.616;23.350;2023-07-31T12:20:42;64820.16;;;27.18;42.67
6899;BME280;3488;42.616;23.350;2023-07-31T12:23:17;64819.09;;;27.17;43.52
6899;BME280;3488;42.616;23.350;2023-07-31T12:25:45;64844.84;;;27.42;43.45
6899;BME280;3488;42.616;23.350;2023-07-31T12:28:13;64894.72;;;27.95;40.64
6899;BME280;3488;42.616;23.350;2023-07-31T12:30:40;64948.78;;;28.41;40.00
6899;BME280;3488;42.616;23.350;2023-07-31T12:33:13;64967.16;;;28.59;39.80
6899;BME280;3488;42.616;23.350;2023-07-31T12:35:43;64914.66;;;28.09;41.00
6899;BME280;3488;42.616;23.350;2023-07-31T12:38:11;64894.19;;;27.92;42.83
6899;BME280;3488;42.616;23.350;2023-07-31T12:40:39;64841.16;;;27.41;43.02
6899;BME280;3488;42.616;23.350;2023-07-31T12:43:08;64856.88;;;27.51;41.95
6899;BME280;3488;42.616;23.350;2023-07-31T12:45:35;64846.94;;;27.42;43.46
6899;BME280;3488;42.616;23.350;2023-07-31T12:48:03;64823.31;;;27.24;44.03
6899;BME280;3488;42.616;23.350;2023-07-31T12:50:30;64837.50;;;27.38;43.50
6899;BME280;3488;42.616;23.350;2023-07-31T12:52:58;64801.81;;;27.03;43.71
6899;BME280;3488;42.616;23.350;2023-07-31T12:55:25;64768.75;;;26.72;43.59
6899;BME280;3488;42.616;23.350;2023-07-31T12:57:53;64822.78;;;27.21;43.53
6899;BME280;3488;42.616;23.350;2023-07-31T13:00:22;64882.09;;;27.80;41.51
6899;BME280;3488;42.616;23.350;2023-07-31T13:02:51;64951.91;;;28.44;39.66
6899;BME280;3488;42.616;23.350;2023-07-31T13:05:18;65024.97;;;29.14;38.21
6899;BME280;3488;42.616;23.350;2023-07-31T13:07:45;65071.72;;;29.59;37.01
6899;BME280;3488;42.616;23.350;2023-07-31T13:10:13;65102.22;;;29.93;36.82